Time;durP1;ratioP1;P1;durP2;ratioP2;P2;SDS_P1;SDS_P2;PMS_P1;PMS_P2;Temp;Humidity;BMP_temperature;BMP_pressure;BME280_temperature;BME280_humidity;BME280_pressure;Samples;Min_cycle;Max_cycle;Signal;HPM_P1;HPM_P2
2022/11/16 00:02:11;;;;;;;455.40;423.57;;;10.40;33.60;;;;;;5050954;28;20182;-72
2022/11/16 00:04:37;;;;;;;530.83;499.10;;;10.40;34.00;;;;;;5052633;28;20273;-72
2022/11/16 00:07:03;;;;;;;544.67;509.53;;;10.40;33.00;;;;;;5052339;28;20504;-72
2022/11/16 00:09:30;;;;;;;550.93;515.17;;;10.40;34.30;;;;;;5052421;28;20175;-72
2022/11/16 00:11:59;;;;;;;336.17;313.17;;;10.40;34.20;;;;;;5052194;28;20257;-72
2022/11/16 00:14:30;;;;;;;289.00;268.13;;;10.40;33.90;;;;;;5052321;28;20467;-72
2022/11/16 00:16:56;;;;;;;611.53;569.93;;;10.30;35.20;;;;;;5052254;28;20509;-72
2022/11/16 00:19:23;;;;;;;566.60;527.23;;;10.40;35.50;;;;;;5052466;28;20927;-72
2022/11/16 00:21:49;;;;;;;516.43;482.57;;;10.40;35.00;;;;;;5051774;28;20519;-72
2022/11/16 00:24:16;;;;;;;617.53;569.77;;;10.40;34.20;;;;;;5052446;28;20417;-72
2022/11/16 00:26:43;;;;;;;641.23;596.13;;;10.40;34.20;;;;;;5052211;28;20445;-72
2022/11/16 00:29:15;;;;;;;415.73;390.37;;;10.40;34.30;;;;;;5052261;28;20450;-72
2022/11/16 00:31:42;;;;;;;665.57;617.53;;;10.50;34.40;;;;;;5052396;28;20412;-71
2022/11/16 00:34:08;;;;;;;538.90;502.30;;;10.50;33.90;;;;;;5052162;28;20492;-72
2022/11/16 00:36:33;;;;;;;504.13;466.73;;;10.50;34.30;;;;;;5052461;28;20857;-72
2022/11/16 00:38:59;;;;;;;353.53;328.87;;;10.40;34.30;;;;;;5051374;28;20268;-72
2022/11/16 00:41:24;;;;;;;310.47;286.43;;;10.30;35.50;;;;;;5052557;28;20218;-72
2022/11/16 00:43:50;;;;;;;422.20;392.53;;;10.30;35.80;;;;;;5051057;28;20185;-72
2022/11/16 00:46:15;;;;;;;216.23;200.80;;;10.30;36.40;;;;;;5052817;28;20582;-72
2022/11/16 00:48:41;;;;;;;437.60;410.13;;;10.30;36.40;;;;;;5052692;28;20269;-72
2022/11/16 00:51:06;;;;;;;438.97;409.73;;;10.30;35.70;;;;;;5052361;28;20178;-72
2022/11/16 00:53:32;;;;;;;289.63;270.67;;;10.40;35.60;;;;;;5052457;28;20670;-72
2022/11/16 00:55:58;;;;;;;481.00;445.77;;;10.40;35.30;;;;;;5052445;28;20181;-72
2022/11/16 00:58:23;;;;;;;654.63;602.47;;;10.40;35.10;;;;;;5050913;28;20816;-72
2022/11/16 01:00:49;;;;;;;373.90;345.97;;;10.30;34.80;;;;;;5052333;28;20202;-72
2022/11/16 01:03:15;;;;;;;218.97;203.17;;;10.30;33.90;;;;;;5050727;28;20339;-72
2022/11/16 01:05:40;;;;;;;619.97;577.60;;;10.40;33.30;;;;;;5051987;28;20174;-72
2022/11/16 01:08:07;;;;;;;505.40;472.20;;;10.40;32.50;;;;;;5051402;28;20194;-72
2022/11/16 01:10:32;;;;;;;584.23;546.47;;;10.50;33.00;;;;;;5055707;28;20264;-73
2022/11/16 01:12:58;;;;;;;397.93;374.30;;;10.50;32.70;;;;;;5055451;28;20441;-72
2022/11/16 01:15:26;;;;;;;621.30;574.23;;;10.50;33.10;;;;;;5055697;28;20417;-72
2022/11/16 01:17:53;;;;;;;510.70;472.60;;;10.40;33.70;;;;;;5054386;28;20259;-72
2022/11/16 01:20:21;;;;;;;596.33;553.87;;;10.30;36.40;;;;;;5055447;28;20499;-72
2022/11/16 01:22:47;;;;;;;215.33;200.73;;;10.40;36.10;;;;;;5055105;28;20924;-72
2022/11/16 01:25:14;;;;;;;574.57;537.63;;;10.40;35.90;;;;;;5055440;28;20462;-72
2022/11/16 01:27:40;;;;;;;326.80;305.07;;;10.50;34.80;;;;;;5055316;28;20217;-72
2022/11/16 01:30:08;;;;;;;595.63;550.17;;;10.40;35.20;;;;;;5055429;28;20451;-72
2022/11/16 01:32:34;;;;;;;433.80;405.03;;;10.50;34.70;;;;;;5055429;28;20551;-72
2022/11/16 01:35:00;;;;;;;286.13;268.00;;;10.50;34.50;;;;;;5055804;28;20425;-72
2022/11/16 01:37:26;;;;;;;612.10;566.87;;;10.50;35.00;;;;;;5055800;28;20479;-72
2022/11/16 01:39:52;;;;;;;618.23;575.60;;;10.60;34.50;;;;;;5055739;28;20526;-72
2022/11/16 01:42:20;;;;;;;535.27;497.87;;;10.60;34.50;;;;;;5055449;28;20899;-72
2022/11/16 01:44:46;;;;;;;591.70;547.47;;;10.60;33.50;;;;;;5055390;28;20641;-72
2022/11/16 01:47:13;;;;;;;519.27;479.57;;;10.50;35.10;;;;;;5055495;28;20433;-72
2022/11/16 01:49:46;;;;;;;484.40;451.13;;;10.60;35.00;;;;;;5054225;28;20190;-71
2022/11/16 01:52:21;;;;;;;486.80;452.90;;;10.60;34.60;;;;;;5055192;28;20413;-72
2022/11/16 01:54:50;;;;;;;436.93;406.93;;;10.60;35.00;;;;;;5055286;28;20428;-71
2022/11/16 01:57:24;;;;;;;507.60;469.73;;;10.60;36.20;;;;;;5054865;28;20831;-72
2022/11/16 01:59:54;;;;;;;475.20;438.90;;;10.40;36.80;;;;;;5053499;28;20452;-72
2022/11/16 02:02:20;;;;;;;364.97;339.23;;;10.30;37.60;;;;;;5054482;28;20755;-71
2022/11/16 02:04:47;;;;;;;540.47;497.57;;;10.20;38.90;;;;;;5054595;28;20423;-72
2022/11/16 02:10:58;;;;;;;573.20;527.63;;;10.20;39.60;;;;;;5054605;28;20946;-72
2022/11/16 02:13:38;;;;;;;416.83;387.13;;;10.30;39.70;;;;;;5054359;28;20779;-72
2022/11/16 02:16:22;;;;;;;268.07;250.43;;;10.30;39.60;;;;;;5054655;28;20401;-72
2022/11/16 02:18:47;;;;;;;489.00;455.37;;;10.30;39.50;;;;;;5053990;28;20417;-71
2022/11/16 02:21:32;;;;;;;401.23;377.87;;;10.30;39.50;;;;;;5054176;28;20875;-71
2022/11/16 02:24:06;;;;;;;434.90;402.27;;;10.30;40.80;;;;;;5054275;28;20186;-71
2022/11/16 02:27:12;;;;;;;639.43;589.30;;;10.30;40.50;;;;;;5054456;28;20811;-71
2022/11/16 02:29:53;;;;;;;610.43;564.23;;;10.30;40.90;;;;;;5052936;28;20472;-72
2022/11/16 02:32:32;;;;;;;385.33;356.30;;;10.30;40.40;;;;;;5054125;28;20435;-71
2022/11/16 02:35:11;;;;;;;509.73;472.57;;;10.30;40.80;;;;;;5054371;28;20409;-71
2022/11/16 02:37:49;;;;;;;277.97;257.57;;;10.30;40.40;;;;;;5053900;28;20506;-71
2022/11/16 02:40:18;;;;;;;422.53;388.37;;;10.30;40.80;;;;;;5052907;28;20467;-72
2022/11/16 02:43:11;;;;;;;443.77;412.10;;;10.30;39.90;;;;;;5053647;28;20934;-71
2022/11/16 02:45:46;;;;;;;478.67;443.47;;;10.30;40.40;;;;;;5052844;28;20425;-71
2022/11/16 02:48:20;;;;;;;235.67;221.37;;;10.30;40.50;;;;;;5053749;28;20451;-72
2022/11/16 02:50:51;;;;;;;441.73;412.93;;;10.40;41.00;;;;;;5053849;28;20414;-72
2022/11/16 02:53:17;;;;;;;698.97;645.17;;;10.50;40.50;;;;;;5053599;28;20422;-72
2022/11/16 02:55:43;;;;;;;608.00;564.37;;;10.50;40.20;;;;;;5053752;28;20491;-72
2022/11/16 02:58:11;;;;;;;343.77;320.93;;;10.60;39.70;;;;;;5053422;28;20190;-72
2022/11/16 03:00:45;;;;;;;650.27;602.53;;;10.70;38.50;;;;;;5053584;28;20206;-71
2022/11/16 03:03:31;;;;;;;713.53;659.63;;;10.70;38.80;;;;;;5053295;28;20405;-71
2022/11/16 03:06:20;;;;;;;421.00;391.57;;;10.80;38.40;;;;;;5053478;28;20413;-71
2022/11/16 03:08:57;;;;;;;559.83;518.47;;;10.80;37.10;;;;;;5052985;28;20441;-71
2022/11/16 03:14:13;;;;;;;393.77;367.27;;;10.70;38.40;;;;;;5053054;28;20409;-71
2022/11/16 03:16:44;;;;;;;502.27;463.93;;;10.60;38.30;;;;;;5053261;28;20427;-71
2022/11/16 03:19:16;;;;;;;743.17;686.63;;;10.60;39.20;;;;;;5053282;28;20420;-71
2022/11/16 03:21:49;;;;;;;592.53;549.70;;;10.60;39.80;;;;;;5052914;28;21040;-71
2022/11/16 03:24:15;;;;;;;776.97;719.27;;;10.70;39.80;;;;;;5053173;28;20405;-71
2022/11/16 03:26:52;;;;;;;651.20;601.97;;;10.70;38.80;;;;;;5047375;28;20952;-71
2022/11/16 03:30:04;;;;;;;509.23;473.47;;;10.70;38.70;;;;;;5041508;28;20192;-71
2022/11/16 03:32:50;;;;;;;548.40;507.93;;;10.80;38.20;;;;;;5034045;28;20425;-71
2022/11/16 03:35:53;;;;;;;678.90;624.20;;;10.80;38.40;;;;;;5052871;28;20456;-71
2022/11/16 03:38:22;;;;;;;719.67;669.17;;;10.70;37.90;;;;;;5040418;28;20446;-71
2022/11/16 03:40:49;;;;;;;718.73;665.00;;;10.70;38.40;;;;;;5052773;28;20491;-71
2022/11/16 03:43:18;;;;;;;764.87;706.67;;;10.70;38.80;;;;;;5052384;28;20417;-71
2022/11/16 03:45:45;;;;;;;739.03;684.27;;;10.70;38.90;;;;;;5052467;28;20421;-71
2022/11/16 03:48:11;;;;;;;378.77;350.90;;;10.70;38.40;;;;;;5052505;28;20422;-71
2022/11/16 03:50:37;;;;;;;430.43;400.83;;;10.80;38.30;;;;;;5052656;28;20409;-71
2022/11/16 03:53:03;;;;;;;459.13;427.33;;;10.80;38.00;;;;;;5052346;28;20531;-71
2022/11/16 03:55:28;;;;;;;624.67;577.53;;;10.70;38.50;;;;;;5052716;28;20446;-71
2022/11/16 03:57:54;;;;;;;514.33;475.10;;;10.70;38.20;;;;;;5052484;28;20277;-71
2022/11/16 04:00:20;;;;;;;890.83;817.67;;;10.60;38.00;;;;;;5052356;28;20207;-71
2022/11/16 04:02:45;;;;;;;719.53;666.17;;;10.60;39.00;;;;;;5052107;28;20182;-71
2022/11/16 04:24:30;;;;;;;699.13;646.67;;;10.70;39.30;;;;;;5052452;28;20416;-71
2022/11/16 04:29:44;;;;;;;465.80;429.13;;;10.70;38.20;;;;;;5051858;28;20797;-71
2022/11/16 04:37:47;;;;;;;381.23;353.07;;;10.70;38.90;;;;;;5051845;28;20586;-71
2022/11/16 04:40:14;;;;;;;595.53;548.67;;;10.70;38.70;;;;;;5051794;28;20456;-72
2022/11/16 04:42:40;;;;;;;643.23;598.00;;;10.80;38.70;;;;;;5051398;28;20931;-71
2022/11/16 04:47:51;;;;;;;780.67;718.27;;;10.80;38.70;;;;;;5051908;28;20211;-71
2022/11/16 04:50:20;;;;;;;705.43;656.00;;;10.90;38.70;;;;;;5051743;28;20417;-71
2022/11/16 04:52:45;;;;;;;609.37;565.23;;;10.90;38.40;;;;;;5051357;28;20501;-71
2022/11/16 04:55:11;;;;;;;621.50;577.50;;;11.00;37.90;;;;;;5051571;28;21046;-72
2022/11/16 04:57:38;;;;;;;763.07;703.93;;;11.00;37.50;;;;;;5050352;28;20198;-72
2022/11/16 05:00:05;;;;;;;644.10;592.50;;;10.90;38.00;;;;;;5051560;28;20475;-71
2022/11/16 05:02:30;;;;;;;888.70;814.27;;;10.80;38.80;;;;;;5051289;28;20413;-71
2022/11/16 05:04:56;;;;;;;623.87;579.87;;;10.80;38.00;;;;;;5050192;28;20444;-71
2022/11/16 05:07:22;;;;;;;422.00;392.47;;;10.80;38.80;;;;;;5051503;28;20704;-71
2022/11/16 05:09:48;;;;;;;599.03;554.67;;;10.80;38.50;;;;;;5050320;28;20294;-71
2022/11/16 05:12:20;;;;;;;764.23;703.60;;;10.80;38.70;;;;;;5051139;28;20413;-71
2022/11/16 05:14:45;;;;;;;863.77;793.30;;;10.80;38.90;;;;;;5051459;28;20503;-71
2022/11/16 05:17:12;;;;;;;513.63;480.83;;;10.80;38.90;;;;;;5050120;28;20518;-71
2022/11/16 05:22:22;;;;;;;408.93;381.60;;;10.90;38.70;;;;;;5051180;28;20974;-72
2022/11/16 05:24:47;;;;;;;730.90;672.03;;;10.90;38.50;;;;;;5051358;28;20414;-71
2022/11/16 05:27:15;;;;;;;705.53;654.13;;;10.90;37.90;;;;;;5075492;22;20465;-68
2022/11/16 05:29:40;;;;;;;384.53;356.10;;;11.00;37.90;;;;;;5051153;28;20552;-68
2022/11/16 05:32:07;;;;;;;465.60;429.57;;;10.80;37.50;;;;;;5050965;28;20460;-68
2022/11/16 05:34:33;;;;;;;660.97;610.50;;;10.70;38.90;;;;;;5051132;28;20258;-69
2022/11/16 05:36:59;;;;;;;747.40;688.20;;;10.70;39.40;;;;;;5051202;28;20402;-69
2022/11/16 05:39:25;;;;;;;773.53;712.17;;;10.70;39.80;;;;;;5051080;28;20946;-69
2022/11/16 05:41:51;;;;;;;286.10;269.63;;;10.80;39.40;;;;;;5050854;28;20574;-70
2022/11/16 05:44:18;;;;;;;298.50;277.00;;;10.80;38.90;;;;;;5051126;28;20435;-69
2022/11/16 05:46:44;;;;;;;418.53;393.70;;;10.80;38.50;;;;;;5050921;28;20413;-68
2022/11/16 05:49:10;;;;;;;280.10;263.87;;;10.80;38.60;;;;;;5050958;28;20438;-68
2022/11/16 05:51:38;;;;;;;781.13;717.87;;;10.90;38.30;;;;;;5050917;28;20417;-68
2022/11/16 05:54:05;;;;;;;393.93;366.40;;;10.90;37.80;;;;;;5067218;28;20428;-69
2022/11/16 05:56:31;;;;;;;511.93;478.13;;;10.80;37.40;;;;;;5055007;28;20421;-68
2022/11/16 05:58:57;;;;;;;806.20;740.60;;;10.80;37.90;;;;;;5054534;28;20433;-69
2022/11/16 06:01:24;;;;;;;705.60;653.37;;;10.80;38.60;;;;;;5054664;28;20452;-68
2022/11/16 06:03:49;;;;;;;760.27;700.97;;;10.80;37.70;;;;;;5054338;28;20418;-69
2022/11/16 06:06:15;;;;;;;659.40;606.80;;;10.70;38.90;;;;;;5054591;28;20408;-70
2022/11/16 06:08:41;;;;;;;531.90;494.03;;;10.70;39.20;;;;;;5069615;28;20285;-68
2022/11/16 06:11:08;;;;;;;407.83;378.03;;;10.70;39.10;;;;;;5054266;28;20171;-71
2022/11/16 06:13:35;;;;;;;767.50;705.03;;;10.60;39.20;;;;;;5053938;28;20183;-70
2022/11/16 06:16:01;;;;;;;765.83;704.97;;;10.60;38.80;;;;;;5054025;28;20405;-71
2022/11/16 06:18:27;;;;;;;728.57;670.50;;;10.50;39.30;;;;;;5054039;28;20500;-71
2022/11/16 06:20:53;;;;;;;737.93;678.40;;;10.50;39.60;;;;;;5053978;28;20495;-71
2022/11/16 06:23:19;;;;;;;553.83;512.23;;;10.50;39.40;;;;;;5053707;28;20190;-71
2022/11/16 06:25:44;;;;;;;499.13;464.03;;;10.40;39.10;;;;;;5054189;28;20397;-70
2022/11/16 06:28:10;;;;;;;633.37;581.53;;;10.40;39.90;;;;;;5053959;28;20268;-69
2022/11/16 06:30:40;;;;;;;419.07;389.97;;;10.30;40.60;;;;;;5054040;28;20210;-69
2022/11/16 06:33:05;;;;;;;791.40;726.87;;;10.40;40.50;;;;;;5053848;28;20253;-71
2022/11/16 06:35:31;;;;;;;610.17;568.80;;;10.40;40.40;;;;;;5052669;28;20525;-69
2022/11/16 06:37:57;;;;;;;665.67;614.77;;;10.30;40.50;;;;;;5054093;28;20571;-69
2022/11/16 06:40:23;;;;;;;614.37;565.60;;;10.30;39.60;;;;;;5053724;28;20206;-69
2022/11/16 06:42:49;;;;;;;820.23;752.40;;;10.30;40.10;;;;;;5053644;28;20178;-69
2022/11/16 06:45:14;;;;;;;874.33;800.20;;;10.30;39.60;;;;;;5053704;28;20412;-68
2022/11/16 06:47:40;;;;;;;706.10;653.27;;;10.30;39.50;;;;;;5053683;28;20266;-69
2022/11/16 06:50:06;;;;;;;555.23;514.57;;;10.30;40.30;;;;;;5053754;28;20186;-69
2022/11/16 06:52:31;;;;;;;669.43;616.60;;;10.20;39.80;;;;;;5053343;28;20177;-69
2022/11/16 06:54:57;;;;;;;524.90;486.17;;;10.20;39.70;;;;;;5071498;28;20421;-68
2022/11/16 06:57:23;;;;;;;672.57;620.13;;;10.10;38.90;;;;;;5057045;28;20254;-68
2022/11/16 06:59:48;;;;;;;845.53;773.97;;;10.10;40.00;;;;;;5057479;28;20228;-69
2022/11/16 07:02:15;;;;;;;325.87;303.27;;;10.00;40.10;;;;;;5056991;28;20206;-70
2022/11/16 07:04:40;;;;;;;697.80;639.63;;;10.00;40.90;;;;;;5072006;28;20183;-71
2022/11/16 07:07:06;;;;;;;787.10;720.20;;;10.00;41.30;;;;;;5055793;28;20428;-69
2022/11/16 07:09:32;;;;;;;782.93;717.63;;;10.10;41.40;;;;;;5056965;28;20201;-68
2022/11/16 07:11:57;;;;;;;807.73;743.40;;;10.10;41.40;;;;;;5055191;28;20189;-68
2022/11/16 07:14:23;;;;;;;743.40;687.57;;;10.20;41.50;;;;;;5054667;28;20175;-69
2022/11/16 07:16:49;;;;;;;687.87;635.93;;;10.30;41.60;;;;;;5056227;28;20527;-70
2022/11/16 07:19:14;;;;;;;617.30;568.80;;;10.30;41.60;;;;;;5056653;28;20222;-70
2022/11/16 07:21:40;;;;;;;770.57;710.63;;;10.40;40.50;;;;;;5055997;28;20698;-69
2022/11/16 07:24:05;;;;;;;820.37;752.60;;;10.40;39.60;;;;;;5055196;28;20175;-70
2022/11/16 07:26:32;;;;;;;787.00;724.80;;;10.40;39.20;;;;;;5055702;28;20185;-70
2022/11/16 07:28:58;;;;;;;520.00;483.23;;;10.40;39.90;;;;;;5056559;28;20634;-70
2022/11/16 07:31:24;;;;;;;805.60;737.77;;;10.40;40.00;;;;;;5072063;28;20428;-70
2022/11/16 07:33:51;;;;;;;690.93;637.50;;;10.30;40.40;;;;;;5055424;28;20505;-70
2022/11/16 07:36:16;;;;;;;234.37;215.47;;;10.40;40.90;;;;;;5055938;28;20179;-70
2022/11/16 07:38:42;;;;;;;466.70;430.57;;;10.50;38.80;;;;;;5071248;28;20514;-67
2022/11/16 07:41:18;;;;;;;763.80;701.07;;;10.50;39.20;;;;;;5054404;28;20202;-70
2022/11/16 07:43:44;;;;;;;711.10;654.27;;;10.40;38.30;;;;;;5055240;28;20427;-71
2022/11/16 07:46:09;;;;;;;692.07;636.83;;;10.30;38.00;;;;;;5054774;28;20515;-71
2022/11/16 07:48:35;;;;;;;914.20;835.73;;;10.30;38.60;;;;;;5070533;28;20210;-71
2022/11/16 07:51:02;;;;;;;895.67;815.53;;;10.20;38.70;;;;;;5055447;28;20668;-70
2022/11/16 07:53:29;;;;;;;234.37;218.40;;;10.20;39.10;;;;;;5070299;28;20179;-70
2022/11/16 07:55:55;;;;;;;735.20;680.80;;;10.30;40.30;;;;;;5058111;28;20428;-70
2022/11/16 07:58:21;;;;;;;896.70;818.97;;;10.50;39.40;;;;;;5056197;28;20533;-70
2022/11/16 08:00:46;;;;;;;742.50;679.97;;;10.60;40.10;;;;;;5050549;28;20492;-71
2022/11/16 08:03:12;;;;;;;770.23;706.87;;;10.80;39.30;;;;;;5042688;28;20179;-71
2022/11/16 08:05:38;;;;;;;516.93;480.10;;;11.00;37.60;;;;;;5059368;28;20431;-70
2022/11/16 08:08:03;;;;;;;667.17;613.47;;;11.20;37.20;;;;;;5057972;28;20202;-70
2022/11/16 08:10:30;;;;;;;608.10;562.97;;;11.20;35.70;;;;;;5056356;28;20646;-70
2022/11/16 08:12:56;;;;;;;473.13;438.67;;;11.20;34.30;;;;;;5053919;28;20365;-68
2022/11/16 08:15:22;;;;;;;675.27;621.27;;;11.10;34.30;;;;;;5036854;28;20509;-69
2022/11/16 08:17:47;;;;;;;751.67;698.27;;;11.10;34.30;;;;;;5036151;28;20443;-69
2022/11/16 08:20:13;;;;;;;875.43;803.40;;;11.10;34.10;;;;;;5037401;28;20556;-69
2022/11/16 08:22:39;;;;;;;488.30;456.67;;;11.30;35.00;;;;;;5051982;28;20192;-69
2022/11/16 08:25:05;;;;;;;582.17;544.70;;;11.30;34.10;;;;;;5055987;28;20418;-70
2022/11/16 08:27:32;;;;;;;577.33;539.67;;;11.50;33.20;;;;;;5038764;28;20589;-70
2022/11/16 08:29:57;;;;;;;576.27;532.43;;;11.70;32.50;;;;;;5038426;28;20550;-69
2022/11/16 08:32:23;;;;;;;827.67;762.13;;;11.90;31.90;;;;;;5034400;28;20448;-76
2022/11/16 08:34:48;;;;;;;615.17;567.33;;;12.10;30.30;;;;;;5036041;28;20618;-71
2022/11/16 08:37:14;;;;;;;890.87;818.93;;;12.30;29.60;;;;;;5035872;28;20191;-71
2022/11/16 08:39:39;;;;;;;627.43;579.97;;;12.40;29.20;;;;;;5035221;28;20182;-71
2022/11/16 08:42:05;;;;;;;726.00;672.43;;;12.30;28.30;;;;;;5035395;28;20174;-71
2022/11/16 08:44:30;;;;;;;290.73;270.90;;;12.40;28.40;;;;;;5050673;28;20198;-71
2022/11/16 08:46:56;;;;;;;619.87;573.90;;;12.60;27.30;;;;;;5034182;28;20184;-71
2022/11/16 08:49:22;;;;;;;514.83;479.63;;;12.70;27.50;;;;;;5034422;28;20209;-71
2022/11/16 08:51:47;;;;;;;674.70;622.47;;;12.80;26.80;;;;;;5036285;28;20193;-71
2022/11/16 08:54:13;;;;;;;611.67;565.37;;;13.00;25.60;;;;;;5036075;28;20183;-71
2022/11/16 08:56:38;;;;;;;629.27;585.90;;;13.00;24.90;;;;;;5035118;28;20209;-72
2022/11/16 08:59:04;;;;;;;251.37;233.03;;;13.10;24.70;;;;;;5047036;28;20213;-72
2022/11/16 09:01:33;;;;;;;286.80;264.20;;;13.20;24.80;;;;;;5054597;28;20216;-72
2022/11/16 09:03:59;;;;;;;513.13;478.20;;;13.30;23.40;;;;;;5053095;28;20174;-71
2022/11/16 09:06:26;;;;;;;690.93;643.43;;;13.20;22.80;;;;;;5050899;28;20439;-70
2022/11/16 09:08:52;;;;;;;387.80;357.83;;;13.10;23.40;;;;;;5051316;28;20437;-70
2022/11/16 09:11:20;;;;;;;609.07;565.87;;;13.10;23.50;;;;;;5046085;28;20463;-69
2022/11/16 09:13:48;;;;;;;716.07;666.20;;;13.00;23.20;;;;;;5049896;28;20519;-70
2022/11/16 09:16:15;;;;;;;560.93;520.60;;;12.90;23.20;;;;;;5051422;28;20413;-70
2022/11/16 09:18:45;;;;;;;497.80;463.17;;;12.80;23.10;;;;;;5051360;28;20464;-69
2022/11/16 09:21:11;;;;;;;424.17;392.60;;;12.70;23.20;;;;;;5051255;28;20497;-69
2022/11/16 09:23:37;;;;;;;695.23;647.40;;;12.50;22.90;;;;;;5051884;28;20912;-70
2022/11/16 09:26:04;;;;;;;317.77;293.83;;;12.50;23.50;;;;;;5052598;28;20198;-68
2022/11/16 09:28:30;;;;;;;535.87;497.23;;;12.40;24.20;;;;;;5051216;28;20222;-69
2022/11/16 09:31:00;;;;;;;635.47;589.47;;;12.20;24.10;;;;;;5056845;28;20421;-69
2022/11/16 09:33:29;;;;;;;132.30;120.03;;;12.10;24.00;;;;;;5057389;28;20420;-69
2022/11/16 09:35:54;;;;;;;617.33;571.67;;;12.40;24.50;;;;;;5055273;28;20409;-69
2022/11/16 09:38:20;;;;;;;364.73;338.10;;;13.00;24.00;;;;;;5054958;28;20440;-69
2022/11/16 09:40:46;;;;;;;618.27;575.80;;;13.50;21.40;;;;;;5055064;28;20695;-69
2022/11/16 09:43:37;;;;;;;535.47;498.17;;;13.50;20.70;;;;;;5053525;28;20265;-69
2022/11/16 09:46:25;;;;;;;620.30;576.63;;;13.70;20.80;;;;;;5053518;28;20421;-69
2022/11/16 09:48:55;;;;;;;471.93;438.27;;;13.60;19.80;;;;;;5054569;28;20433;-69
2022/11/16 09:51:22;;;;;;;345.63;321.57;;;13.30;20.30;;;;;;5054782;28;20429;-69
2022/11/16 09:53:53;;;;;;;438.97;408.23;;;13.10;19.30;;;;;;5054370;28;20416;-69
2022/11/16 09:56:22;;;;;;;358.37;333.90;;;13.20;19.90;;;;;;5054827;28;20420;-69
2022/11/16 09:59:02;;;;;;;457.47;425.07;;;13.00;20.20;;;;;;5054378;28;20664;-69
2022/11/16 10:01:41;;;;;;;482.83;449.77;;;12.70;19.60;;;;;;5054565;28;20805;-69
2022/11/16 10:04:22;;;;;;;498.13;465.63;;;12.50;19.70;;;;;;5054177;28;20438;-69
2022/11/16 10:07:03;;;;;;;479.53;444.27;;;12.60;21.50;;;;;;5054186;28;21014;-69
2022/11/16 10:09:29;;;;;;;519.43;485.43;;;12.70;20.80;;;;;;5054464;28;20910;-70
2022/11/16 10:12:14;;;;;;;290.57;270.27;;;12.70;20.20;;;;;;5054326;28;20420;-70
2022/11/16 10:15:03;;;;;;;531.33;495.43;;;12.70;20.20;;;;;;5054331;28;20412;-69
2022/11/16 10:17:50;;;;;;;377.30;352.27;;;12.50;20.10;;;;;;5034194;28;20476;-69
2022/11/16 10:20:24;;;;;;;439.20;406.57;;;12.40;20.00;;;;;;5032782;28;20468;-70
2022/11/16 10:22:59;;;;;;;517.43;481.13;;;12.40;20.00;;;;;;5032664;28;20943;-69
2022/11/16 10:25:35;;;;;;;219.03;202.60;;;12.60;20.10;;;;;;5035760;28;20439;-69
2022/11/16 10:28:35;;;;;;;504.70;467.77;;;12.80;19.40;;;;;;5069226;28;20456;-70
2022/11/16 10:31:23;;;;;;;447.17;416.67;;;12.80;17.20;;;;;;5053767;28;20424;-69
2022/11/16 10:33:53;;;;;;;365.40;339.43;;;12.80;17.70;;;;;;5053508;28;20413;-69
2022/11/16 10:36:21;;;;;;;531.03;495.83;;;13.00;18.10;;;;;;5054048;28;20420;-69
2022/11/16 10:38:47;;;;;;;316.77;294.40;;;13.20;16.30;;;;;;5053602;28;20425;-69
2022/11/16 10:41:29;;;;;;;268.70;249.63;;;13.70;16.60;;;;;;5053418;28;20471;-70
2022/11/16 10:43:57;;;;;;;456.73;425.07;;;14.20;14.80;;;;;;5052246;28;20232;-70
2022/11/16 10:46:38;;;;;;;525.27;491.97;;;13.80;14.10;;;;;;5053566;28;20425;-69
2022/11/16 10:49:46;;;;;;;148.03;135.90;;;13.60;14.20;;;;;;5053469;28;20449;-69
2022/11/16 10:52:12;;;;;;;397.17;369.93;;;13.60;14.70;;;;;;5011254;28;20425;-69
2022/11/16 10:54:37;;;;;;;422.10;393.43;;;13.50;13.60;;;;;;5046522;28;20503;-70
2022/11/16 10:57:12;;;;;;;165.47;152.23;;;13.10;14.40;;;;;;5052970;28;20171;-69
2022/11/16 10:59:47;;;;;;;463.37;433.00;;;12.90;15.40;;;;;;5053503;28;20269;-70
2022/11/16 11:02:27;;;;;;;167.93;154.53;;;12.60;16.60;;;;;;5053060;28;20412;-71
2022/11/16 11:05:06;;;;;;;378.67;351.23;;;12.60;16.30;;;;;;5053722;28;20751;-70
2022/11/16 11:07:36;;;;;;;504.00;473.63;;;12.60;17.20;;;;;;5067046;28;20448;-70
2022/11/16 11:10:03;;;;;;;306.73;286.00;;;12.40;16.70;;;;;;5051808;28;20467;-70
2022/11/16 11:12:38;;;;;;;458.60;426.97;;;12.50;16.40;;;;;;5067122;28;20443;-69
2022/11/16 11:15:10;;;;;;;499.50;465.07;;;12.50;16.40;;;;;;5051534;28;20420;-69
2022/11/16 11:17:41;;;;;;;519.37;487.47;;;12.40;16.40;;;;;;5053317;28;20962;-69
2022/11/16 11:20:22;;;;;;;297.67;276.07;;;12.40;17.00;;;;;;5053375;28;20545;-70
2022/11/16 11:22:54;;;;;;;499.17;465.60;;;12.30;17.30;;;;;;5051818;28;20784;-70
2022/11/16 11:25:36;;;;;;;376.07;349.77;;;12.30;16.30;;;;;;5051816;28;20482;-70
2022/11/16 11:28:13;;;;;;;182.30;168.10;;;12.40;17.50;;;;;;5056381;22;20528;-70
2022/11/16 11:30:39;;;;;;;594.60;556.27;;;12.30;16.80;;;;;;5072420;28;20456;-69
2022/11/16 11:33:10;;;;;;;242.10;224.37;;;12.50;16.60;;;;;;5054696;28;20443;-69
2022/11/16 11:35:36;;;;;;;383.47;357.63;;;12.80;16.00;;;;;;5072771;28;20233;-69
2022/11/16 11:38:02;;;;;;;413.30;384.57;;;13.00;15.70;;;;;;5049575;28;20468;-70
2022/11/16 11:40:29;;;;;;;523.50;488.10;;;13.30;14.00;;;;;;5053256;28;20281;-70
2022/11/16 11:43:04;;;;;;;353.97;329.40;;;13.60;14.20;;;;;;5034503;28;20409;-70
2022/11/16 11:45:45;;;;;;;402.03;374.77;;;13.60;14.50;;;;;;5052943;28;20921;-70
2022/11/16 11:48:31;;;;;;;335.83;313.17;;;13.70;13.60;;;;;;5038871;28;20449;-70
2022/11/16 11:51:01;;;;;;;442.33;416.53;;;13.70;12.40;;;;;;5052454;28;20437;-70
2022/11/16 11:53:52;;;;;;;173.23;159.03;;;13.80;12.30;;;;;;5033735;28;20420;-70
2022/11/16 11:56:18;;;;;;;315.73;296.27;;;13.90;12.70;;;;;;5052414;28;20943;-70
2022/11/16 11:58:45;;;;;;;526.70;492.93;;;14.20;12.60;;;;;;5038018;28;20545;-70
2022/11/16 12:01:14;;;;;;;621.33;580.57;;;14.60;11.90;;;;;;5044670;28;20210;-70
2022/11/16 12:03:49;;;;;;;369.90;343.60;;;14.90;11.00;;;;;;5049151;28;20420;-71
2022/11/16 12:06:20;;;;;;;475.87;443.53;;;15.00;9.90;;;;;;5036739;28;20440;-70
2022/11/16 12:09:18;;;;;;;359.70;336.40;;;15.00;10.70;;;;;;5051626;28;20490;-69
2022/11/16 12:11:52;;;;;;;437.63;410.07;;;15.00;9.70;;;;;;5051650;28;20412;-70
2022/11/16 12:14:39;;;;;;;430.53;402.07;;;14.70;8.60;;;;;;5051912;28;20484;-70
2022/11/16 12:17:08;;;;;;;514.47;476.50;;;14.80;8.50;;;;;;5038514;28;20508;-71
2022/11/16 12:20:04;;;;;;;461.17;429.40;;;15.00;8.10;;;;;;5046860;28;20538;-69
2022/11/16 12:22:39;;;;;;;365.27;339.30;;;14.90;8.60;;;;;;5017738;28;20436;-70
2022/11/16 12:25:24;;;;;;;481.97;449.70;;;14.90;8.40;;;;;;5051161;28;20487;-70
2022/11/16 12:28:08;;;;;;;471.73;436.20;;;14.70;8.80;;;;;;5033243;28;20439;-69
2022/11/16 12:30:49;;;;;;;420.43;394.70;;;14.50;8.30;;;;;;5048706;28;20443;-70
2022/11/16 12:33:41;;;;;;;422.87;394.43;;;14.40;8.30;;;;;;5049317;28;20432;-70
2022/11/16 12:36:29;;;;;;;416.20;388.80;;;14.30;9.70;;;;;;5051552;28;20427;-71
2022/11/16 12:39:09;;;;;;;541.20;503.53;;;14.50;9.70;;;;;;5051057;28;20443;-70
2022/11/16 12:42:02;;;;;;;397.07;370.67;;;14.90;8.60;;;;;;5051305;28;20456;-70
2022/11/16 12:44:39;;;;;;;104.47;92.30;;;15.00;7.90;;;;;;5019583;28;20425;-70
2022/11/16 12:47:24;;;;;;;316.70;295.00;;;15.00;8.20;;;;;;5051138;28;20789;-70
2022/11/16 12:50:04;;;;;;;458.97;428.37;;;14.90;8.40;;;;;;5051027;28;20425;-70
2022/11/16 12:53:00;;;;;;;458.83;428.20;;;14.80;8.50;;;;;;5029725;28;20421;-70
2022/11/16 12:55:43;;;;;;;368.33;342.80;;;14.50;8.70;;;;;;5013325;28;20428;-70
2022/11/16 12:58:21;;;;;;;366.40;340.37;;;14.60;9.50;;;;;;5051327;28;20460;-70
2022/11/16 13:01:16;;;;;;;287.97;266.57;;;14.60;9.70;;;;;;5051260;28;20484;-70
2022/11/16 13:04:00;;;;;;;395.03;368.13;;;14.80;9.00;;;;;;5033536;28;20496;-70
2022/11/16 13:06:47;;;;;;;275.30;255.60;;;15.10;7.90;;;;;;5035042;28;20504;-70